Time;durP1;ratioP1;P1;durP2;ratioP2;P2;SDS_P1;SDS_P2;PMS_P1;PMS_P2;Temp;Humidity;BMP_temperature;BMP_pressure;BME280_temperature;BME280_humidity;BME280_pressure;Samples;Min_cycle;Max_cycle;Signal;HPM_P1;HPM_P2
2023/05/28 00:00:12;;;;;;;13.48;7.53;;;;;;;;;;5057806;28;20125;-74
2023/05/28 00:02:39;;;;;;;13.52;6.72;;;;;;;;;;5064228;28;20060;-74
2023/05/28 00:05:05;;;;;;;16.00;6.90;;;;;;;;;;5056082;28;20049;-74
2023/05/28 00:07:31;;;;;;;15.20;7.28;;;;;;;;;;5055858;28;20044;-74
2023/05/28 00:10:00;;;;;;;15.60;7.13;;;;;;;;;;5056089;28;20391;-74
2023/05/28 00:12:26;;;;;;;14.40;7.22;;;;;;;;;;5056063;28;20045;-74
2023/05/28 00:14:52;;;;;;;17.65;7.55;;;;;;;;;;5054484;28;20489;-74
2023/05/28 00:17:18;;;;;;;14.30;7.88;;;;;;;;;;5054466;28;20163;-74
2023/05/28 00:19:45;;;;;;;17.20;7.78;;;;;;;;;;5075929;28;20052;-74
2023/05/28 00:22:11;;;;;;;15.57;7.32;;;;;;;;;;5073557;28;20067;-74
2023/05/28 00:24:37;;;;;;;13.02;6.88;;;;;;;;;;5056219;28;20094;-74
2023/05/28 00:27:03;;;;;;;16.98;8.75;;;;;;;;;;5056199;28;20041;-74
2023/05/28 00:29:30;;;;;;;16.45;7.40;;;;;;;;;;5055513;28;20052;-74
2023/05/28 00:31:56;;;;;;;16.67;8.30;;;;;;;;;;5057858;28;20036;-74
2023/05/28 00:34:26;;;;;;;15.05;8.90;;;;;;;;;;5075783;28;20048;-74
2023/05/28 00:36:53;;;;;;;16.38;8.82;;;;;;;;;;5074264;28;20076;-74
2023/05/28 00:39:19;;;;;;;18.55;8.32;;;;;;;;;;5075492;28;20059;-74
2023/05/28 00:41:45;;;;;;;17.60;8.02;;;;;;;;;;5073667;28;20052;-74
2023/05/28 00:44:12;;;;;;;17.75;8.15;;;;;;;;;;5062864;28;20106;-74
2023/05/28 00:46:40;;;;;;;14.30;7.88;;;;;;;;;;5056050;28;20041;-74
2023/05/28 00:49:07;;;;;;;15.27;7.45;;;;;;;;;;5053744;28;20048;-74
2023/05/28 00:51:33;;;;;;;13.60;7.40;;;;;;;;;;5054909;28;20170;-74
2023/05/28 00:53:59;;;;;;;16.73;8.15;;;;;;;;;;5055149;28;20048;-74
2023/05/28 00:56:26;;;;;;;17.95;7.32;;;;;;;;;;5068135;28;20080;-74
2023/05/28 00:58:53;;;;;;;15.85;7.35;;;;;;;;;;5055511;28;20048;-74
2023/05/28 01:01:19;;;;;;;13.68;7.40;;;;;;;;;;5041466;28;20098;-74
2023/05/28 01:03:46;;;;;;;16.20;7.90;;;;;;;;;;5042720;28;20072;-74
2023/05/28 01:06:13;;;;;;;16.25;8.23;;;;;;;;;;5075069;28;20483;-74
2023/05/28 01:08:39;;;;;;;16.20;7.03;;;;;;;;;;5074625;28;20389;-74
2023/05/28 01:11:07;;;;;;;17.15;7.03;;;;;;;;;;5055567;28;20124;-74
2023/05/28 01:13:34;;;;;;;18.15;7.93;;;;;;;;;;5053411;28;20191;-74
2023/05/28 01:16:00;;;;;;;17.38;7.97;;;;;;;;;;5054776;28;20037;-74
2023/05/28 01:18:27;;;;;;;18.83;8.63;;;;;;;;;;5070836;28;20045;-74
2023/05/28 01:20:53;;;;;;;19.80;8.98;;;;;;;;;;5075127;28;20076;-74
2023/05/28 01:23:23;;;;;;;21.08;9.80;;;;;;;;;;5074574;28;20040;-74
2023/05/28 01:25:52;;;;;;;22.90;9.88;;;;;;;;;;5061323;28;20075;-74
2023/05/28 01:28:18;;;;;;;18.48;9.45;;;;;;;;;;5041262;28;20383;-75
2023/05/28 01:30:45;;;;;;;19.10;9.65;;;;;;;;;;5046998;28;20048;-74
2023/05/28 01:33:12;;;;;;;19.80;8.95;;;;;;;;;;5036979;28;20131;-74
2023/05/28 01:35:38;;;;;;;19.15;8.85;;;;;;;;;;5034770;28;20045;-74
2023/05/28 01:38:05;;;;;;;19.77;9.77;;;;;;;;;;5037560;28;20142;-74
2023/05/28 01:40:31;;;;;;;24.30;9.75;;;;;;;;;;5054201;28;20075;-74
2023/05/28 01:42:58;;;;;;;17.13;9.38;;;;;;;;;;5053429;28;20459;-74
2023/05/28 01:45:24;;;;;;;18.05;9.35;;;;;;;;;;5034684;28;20045;-74
2023/05/28 01:47:51;;;;;;;20.38;9.82;;;;;;;;;;5041875;28;20125;-74
2023/05/28 01:50:17;;;;;;;17.50;8.55;;;;;;;;;;5054053;28;20124;-74
2023/05/28 01:52:44;;;;;;;16.35;9.32;;;;;;;;;;5055174;28;20048;-74
2023/05/28 01:55:11;;;;;;;18.85;8.50;;;;;;;;;;5053485;28;20494;-74
2023/05/28 01:57:38;;;;;;;16.42;8.43;;;;;;;;;;5054300;28;20483;-74
2023/05/28 02:00:05;;;;;;;15.73;7.55;;;;;;;;;;5059680;28;20044;-74
2023/05/28 02:02:31;;;;;;;18.58;8.93;;;;;;;;;;5063706;28;20503;-74
2023/05/28 02:04:57;;;;;;;19.13;8.43;;;;;;;;;;5056683;28;20110;-74
2023/05/28 02:07:23;;;;;;;15.85;8.07;;;;;;;;;;5053819;28;20061;-74
2023/05/28 02:09:49;;;;;;;18.02;8.38;;;;;;;;;;5053488;28;20056;-74
2023/05/28 02:12:15;;;;;;;12.30;7.45;;;;;;;;;;5061612;28;20037;-74
2023/05/28 02:14:42;;;;;;;19.40;8.18;;;;;;;;;;5058271;28;20041;-74
2023/05/28 02:17:09;;;;;;;16.90;8.35;;;;;;;;;;5069575;28;20040;-74
2023/05/28 02:19:35;;;;;;;18.58;8.55;;;;;;;;;;5054611;28;20134;-74
2023/05/28 02:22:01;;;;;;;17.25;8.43;;;;;;;;;;5058905;28;20048;-74
2023/05/28 02:24:27;;;;;;;19.45;8.75;;;;;;;;;;5051241;28;20460;-74
2023/05/28 02:26:54;;;;;;;16.80;8.57;;;;;;;;;;5066584;28;20051;-74
2023/05/28 02:29:20;;;;;;;19.08;8.80;;;;;;;;;;5053127;28;20041;-74
2023/05/28 02:31:46;;;;;;;16.23;8.15;;;;;;;;;;5058126;28;20123;-74
2023/05/28 02:34:12;;;;;;;16.30;8.25;;;;;;;;;;5037385;28;20107;-74
2023/05/28 02:36:38;;;;;;;14.57;8.50;;;;;;;;;;5033794;28;20046;-74
2023/05/28 02:39:05;;;;;;;15.20;7.97;;;;;;;;;;5043170;28;20610;-74
2023/05/28 02:41:31;;;;;;;17.45;8.57;;;;;;;;;;5053658;28;20081;-74
2023/05/28 02:43:57;;;;;;;16.75;8.00;;;;;;;;;;5053438;28;20052;-74
2023/05/28 02:46:23;;;;;;;17.38;8.48;;;;;;;;;;5050071;28;20052;-74
2023/05/28 02:48:49;;;;;;;16.95;7.88;;;;;;;;;;5059022;28;20041;-74
2023/05/28 02:51:15;;;;;;;18.60;8.38;;;;;;;;;;5056775;28;20044;-74
2023/05/28 02:53:41;;;;;;;17.48;8.65;;;;;;;;;;5054161;28;20055;-74
2023/05/28 02:56:07;;;;;;;18.13;8.32;;;;;;;;;;5053616;28;20068;-74
2023/05/28 02:58:36;;;;;;;17.35;7.85;;;;;;;;;;5053265;28;20088;-74
2023/05/28 03:01:02;;;;;;;14.98;7.47;;;;;;;;;;5051884;28;20084;-74
2023/05/28 03:03:28;;;;;;;13.85;7.82;;;;;;;;;;5041207;28;20088;-74
2023/05/28 03:05:54;;;;;;;14.93;7.95;;;;;;;;;;5049417;28;20045;-74
2023/05/28 03:08:20;;;;;;;16.50;7.78;;;;;;;;;;5052568;28;20107;-74
2023/05/28 03:10:46;;;;;;;16.08;8.05;;;;;;;;;;5052974;28;20049;-74
2023/05/28 03:13:12;;;;;;;15.40;8.13;;;;;;;;;;5052967;28;20401;-74
2023/05/28 03:15:38;;;;;;;16.65;8.25;;;;;;;;;;5035015;28;20051;-74
2023/05/28 03:18:04;;;;;;;14.05;7.10;;;;;;;;;;5038520;28;20037;-74
2023/05/28 03:20:30;;;;;;;13.40;7.00;;;;;;;;;;5032673;28;20132;-74
2023/05/28 03:22:57;;;;;;;15.75;7.30;;;;;;;;;;5033270;28;20072;-74
2023/05/28 03:25:24;;;;;;;13.40;6.80;;;;;;;;;;5014940;28;20049;-74
2023/05/28 03:27:50;;;;;;;14.05;7.22;;;;;;;;;;5033545;28;20037;-74
2023/05/28 03:30:16;;;;;;;12.38;7.75;;;;;;;;;;5044543;28;20123;-74
2023/05/28 03:32:42;;;;;;;11.80;7.15;;;;;;;;;;5052523;28;20055;-74
2023/05/28 03:35:09;;;;;;;13.88;6.57;;;;;;;;;;5052369;28;20443;-74
2023/05/28 03:37:35;;;;;;;11.77;6.50;;;;;;;;;;5052963;28;20040;-74
2023/05/28 03:40:01;;;;;;;12.48;7.18;;;;;;;;;;5051353;28;20482;-74
2023/05/28 03:42:27;;;;;;;12.95;5.85;;;;;;;;;;5052849;28;20041;-74
2023/05/28 03:44:53;;;;;;;10.85;5.25;;;;;;;;;;5044409;28;20121;-74
2023/05/28 03:47:19;;;;;;;17.73;7.35;;;;;;;;;;5063876;28;20116;-74
2023/05/28 03:49:45;;;;;;;10.07;6.28;;;;;;;;;;5072742;28;20049;-74
2023/05/28 03:52:11;;;;;;;11.00;6.78;;;;;;;;;;5072183;28;20040;-74
2023/05/28 03:54:37;;;;;;;11.95;6.00;;;;;;;;;;5072367;28;20040;-74
2023/05/28 03:57:03;;;;;;;10.45;7.03;;;;;;;;;;5072378;28;20075;-74
2023/05/28 03:59:29;;;;;;;15.57;6.80;;;;;;;;;;5062288;28;20162;-74
2023/05/28 04:01:55;;;;;;;10.50;6.25;;;;;;;;;;5047872;28;20063;-74
2023/05/28 04:04:21;;;;;;;15.63;6.43;;;;;;;;;;5044151;28;20702;-74
2023/05/28 04:06:47;;;;;;;14.40;6.28;;;;;;;;;;5032709;28;20049;-74
2023/05/28 04:09:14;;;;;;;14.52;6.38;;;;;;;;;;5031938;28;20053;-74
2023/05/28 04:11:40;;;;;;;12.90;7.07;;;;;;;;;;5032679;28;20381;-74
2023/05/28 04:14:09;;;;;;;13.43;7.30;;;;;;;;;;5038022;28;20049;-74
2023/05/28 04:16:35;;;;;;;14.45;6.47;;;;;;;;;;5033243;28;20049;-74
2023/05/28 04:19:01;;;;;;;15.25;7.70;;;;;;;;;;5050790;28;20128;-74
2023/05/28 04:21:28;;;;;;;16.33;7.50;;;;;;;;;;5055849;28;20044;-74
2023/05/28 04:23:55;;;;;;;14.68;7.82;;;;;;;;;;5055746;28;20110;-74
2023/05/28 04:26:22;;;;;;;17.20;7.85;;;;;;;;;;5055948;28;20041;-74
2023/05/28 04:28:48;;;;;;;19.58;8.55;;;;;;;;;;5053754;28;20072;-74
2023/05/28 04:31:14;;;;;;;18.55;8.85;;;;;;;;;;5035361;28;20037;-74
2023/05/28 04:33:40;;;;;;;23.08;10.60;;;;;;;;;;5065507;28;20048;-74
2023/05/28 04:36:13;;;;;;;23.35;10.10;;;;;;;;;;5075863;28;20053;-74
2023/05/28 04:38:39;;;;;;;21.10;11.48;;;;;;;;;;5075841;28;20053;-74
2023/05/28 04:41:06;;;;;;;20.30;10.40;;;;;;;;;;5075980;28;20045;-74
2023/05/28 04:43:33;;;;;;;24.58;11.55;;;;;;;;;;5071472;28;20036;-74
2023/05/28 04:46:00;;;;;;;23.15;12.00;;;;;;;;;;5041834;28;20514;-74
2023/05/28 04:48:26;;;;;;;23.67;11.50;;;;;;;;;;5055845;28;20041;-74
2023/05/28 04:50:53;;;;;;;20.98;10.57;;;;;;;;;;5055245;28;20037;-74
2023/05/28 04:53:20;;;;;;;23.77;11.80;;;;;;;;;;5055160;28;20090;-74
2023/05/28 04:55:46;;;;;;;22.73;10.57;;;;;;;;;;5057788;28;20036;-74
2023/05/28 04:58:12;;;;;;;21.67;9.27;;;;;;;;;;5066373;28;20503;-75
2023/05/28 05:00:38;;;;;;;21.35;9.93;;;;;;;;;;5056243;28;20072;-75
2023/05/28 05:03:04;;;;;;;20.65;10.30;;;;;;;;;;5063681;28;20045;-75
2023/05/28 05:05:30;;;;;;;20.08;9.15;;;;;;;;;;5037957;28;20053;-74
2023/05/28 05:07:56;;;;;;;16.15;9.25;;;;;;;;;;5035231;28;20037;-75
2023/05/28 05:10:22;;;;;;;22.58;9.88;;;;;;;;;;5034613;28;20097;-75
2023/05/28 05:12:48;;;;;;;20.38;8.77;;;;;;;;;;5035348;28;20124;-75
2023/05/28 05:15:15;;;;;;;21.42;8.93;;;;;;;;;;5038462;28;20124;-74
2023/05/28 05:17:41;;;;;;;19.58;8.75;;;;;;;;;;5054431;28;20049;-75
2023/05/28 05:20:08;;;;;;;15.25;8.38;;;;;;;;;;5040023;28;20056;-75
2023/05/28 05:22:34;;;;;;;17.05;8.43;;;;;;;;;;5035565;28;20068;-74
2023/05/28 05:25:00;;;;;;;17.63;8.15;;;;;;;;;;5033890;28;20046;-74
2023/05/28 05:27:28;;;;;;;12.73;6.22;;;;;;;;;;5035124;28;20092;-74
2023/05/28 05:29:54;;;;;;;12.90;6.20;;;;;;;;;;5047700;28;20125;-74
2023/05/28 05:32:20;;;;;;;13.40;5.90;;;;;;;;;;5034968;28;20053;-74
2023/05/28 05:34:46;;;;;;;16.05;7.22;;;;;;;;;;5056242;28;20045;-74
2023/05/28 05:37:12;;;;;;;13.82;6.93;;;;;;;;;;5053581;28;20077;-75
2023/05/28 05:39:38;;;;;;;14.20;7.57;;;;;;;;;;5054051;28;20087;-75
2023/05/28 05:42:05;;;;;;;16.48;8.15;;;;;;;;;;5056092;28;20431;-75
2023/05/28 05:44:31;;;;;;;19.63;8.23;;;;;;;;;;5055821;28;20055;-74
2023/05/28 05:46:57;;;;;;;20.08;7.93;;;;;;;;;;5053362;28;20041;-74
2023/05/28 05:49:23;;;;;;;22.98;9.18;;;;;;;;;;5058348;28;20079;-75
2023/05/28 05:51:50;;;;;;;16.67;8.25;;;;;;;;;;5075076;28;20072;-74
2023/05/28 05:54:16;;;;;;;16.40;7.30;;;;;;;;;;5074415;28;20445;-75
2023/05/28 05:56:43;;;;;;;19.40;9.43;;;;;;;;;;5064529;28;20045;-74
2023/05/28 05:59:09;;;;;;;19.38;8.60;;;;;;;;;;5057751;28;20053;-74
2023/05/28 06:01:35;;;;;;;18.80;8.48;;;;;;;;;;5041104;28;20048;-75
2023/05/28 06:04:01;;;;;;;12.55;7.65;;;;;;;;;;5073094;28;20044;-75
2023/05/28 06:06:28;;;;;;;14.15;7.28;;;;;;;;;;5057451;28;20083;-75
2023/05/28 06:08:54;;;;;;;13.73;7.20;;;;;;;;;;5055158;28;20087;-75
2023/05/28 06:11:22;;;;;;;16.42;8.18;;;;;;;;;;5064436;28;20084;-75
2023/05/28 06:13:48;;;;;;;14.70;7.85;;;;;;;;;;5068417;28;20486;-74
2023/05/28 06:16:14;;;;;;;13.98;8.35;;;;;;;;;;5049849;28;20049;-75
2023/05/28 06:18:40;;;;;;;14.88;8.50;;;;;;;;;;5061861;28;20044;-75
2023/05/28 06:21:07;;;;;;;15.38;7.03;;;;;;;;;;5053722;28;20045;-75
2023/05/28 06:23:33;;;;;;;9.40;5.65;;;;;;;;;;5054326;28;20075;-75
2023/05/28 06:26:00;;;;;;;11.63;5.80;;;;;;;;;;5053577;28;20051;-75
2023/05/28 06:28:27;;;;;;;11.43;5.90;;;;;;;;;;5053827;28;20048;-75
2023/05/28 06:30:53;;;;;;;9.18;5.50;;;;;;;;;;5051073;28;20099;-75
2023/05/28 06:33:19;;;;;;;13.82;5.60;;;;;;;;;;5053113;28;20087;-74
2023/05/28 06:35:45;;;;;;;11.77;4.97;;;;;;;;;;5072142;28;20048;-75
2023/05/28 06:38:11;;;;;;;12.05;5.40;;;;;;;;;;5053372;28;20044;-74
2023/05/28 06:40:37;;;;;;;9.52;5.30;;;;;;;;;;5015735;28;20057;-75
2023/05/28 06:43:03;;;;;;;11.88;5.28;;;;;;;;;;5033803;28;20053;-75
2023/05/28 06:45:32;;;;;;;8.85;4.78;;;;;;;;;;5031879;28;20152;-75
2023/05/28 06:47:58;;;;;;;7.40;3.83;;;;;;;;;;5056417;28;20559;-75
2023/05/28 06:50:24;;;;;;;10.60;4.03;;;;;;;;;;5020677;28;20060;-75
2023/05/28 06:52:51;;;;;;;9.25;3.80;;;;;;;;;;5046026;28;20060;-74
2023/05/28 06:55:17;;;;;;;9.15;4.13;;;;;;;;;;5052947;28;20048;-74
2023/05/28 06:57:44;;;;;;;9.52;3.88;;;;;;;;;;5051620;28;20049;-75
2023/05/28 07:00:15;;;;;;;7.70;4.18;;;;;;;;;;5043901;28;20033;-74
2023/05/28 07:02:41;;;;;;;7.55;3.90;;;;;;;;;;5052982;28;20048;-75
2023/05/28 07:05:07;;;;;;;8.05;4.45;;;;;;;;;;5051453;28;20044;-75
2023/05/28 07:07:33;;;;;;;7.68;3.85;;;;;;;;;;5052844;28;20428;-75
2023/05/28 07:09:59;;;;;;;8.18;4.38;;;;;;;;;;5052420;28;20092;-75
2023/05/28 07:12:25;;;;;;;9.98;4.68;;;;;;;;;;5039696;28;20049;-75
2023/05/28 07:14:51;;;;;;;10.10;5.13;;;;;;;;;;5032585;28;20407;-75
2023/05/28 07:17:18;;;;;;;8.25;4.28;;;;;;;;;;5059732;28;20048;-75
2023/05/28 07:19:44;;;;;;;9.48;4.60;;;;;;;;;;5070727;28;20522;-75
2023/05/28 07:22:10;;;;;;;11.63;5.40;;;;;;;;;;5072897;28;20045;-75
2023/05/28 07:24:36;;;;;;;8.57;5.28;;;;;;;;;;5073614;28;20045;-77
2023/05/28 07:27:02;;;;;;;10.30;5.10;;;;;;;;;;5071044;28;20057;-77
2023/05/28 07:29:28;;;;;;;7.78;4.68;;;;;;;;;;5052416;28;20049;-74
2023/05/28 07:31:55;;;;;;;13.07;5.53;;;;;;;;;;5057085;28;20056;-75
2023/05/28 07:34:21;;;;;;;8.43;4.55;;;;;;;;;;5058725;28;20103;-75
2023/05/28 07:36:47;;;;;;;10.32;5.55;;;;;;;;;;5071476;28;20479;-75
2023/05/28 07:39:13;;;;;;;11.07;5.10;;;;;;;;;;5045313;28;20056;-75
2023/05/28 07:41:39;;;;;;;11.15;5.22;;;;;;;;;;5053163;28;20044;-75
2023/05/28 07:44:06;;;;;;;11.25;5.03;;;;;;;;;;5051370;28;20045;-75
2023/05/28 07:46:32;;;;;;;9.10;6.00;;;;;;;;;;5052857;28;20532;-75
2023/05/28 07:48:58;;;;;;;9.88;5.65;;;;;;;;;;5052664;28;20406;-75
2023/05/28 07:51:28;;;;;;;10.23;5.75;;;;;;;;;;5053304;28;20083;-75
2023/05/28 07:53:54;;;;;;;11.18;5.75;;;;;;;;;;5047849;28;20412;-75
2023/05/28 07:56:21;;;;;;;8.73;5.50;;;;;;;;;;5036295;28;20060;-75
2023/05/28 07:58:47;;;;;;;11.90;5.90;;;;;;;;;;5036394;28;20124;-75
2023/05/28 08:01:13;;;;;;;10.05;5.30;;;;;;;;;;5036593;28;20049;-75
2023/05/28 08:03:40;;;;;;;12.52;5.88;;;;;;;;;;5053778;28;20041;-75
2023/05/28 08:06:06;;;;;;;9.63;5.07;;;;;;;;;;5055352;28;20052;-75
2023/05/28 08:08:33;;;;;;;10.70;5.07;;;;;;;;;;5062436;28;20048;-75
2023/05/28 08:10:59;;;;;;;9.65;5.10;;;;;;;;;;5056123;28;20571;-75
2023/05/28 08:13:25;;;;;;;11.88;5.35;;;;;;;;;;5043589;28;20088;-75
2023/05/28 08:15:51;;;;;;;12.65;5.35;;;;;;;;;;5036108;28;20056;-75
2023/05/28 08:18:18;;;;;;;10.07;5.47;;;;;;;;;;5036339;28;20386;-75
2023/05/28 08:20:44;;;;;;;9.02;4.85;;;;;;;;;;5035975;28;20057;-75
2023/05/28 08:23:10;;;;;;;10.77;5.68;;;;;;;;;;5062191;28;20151;-76
2023/05/28 08:25:36;;;;;;;9.18;5.30;;;;;;;;;;5064987;28;20045;-76
2023/05/28 08:28:02;;;;;;;9.55;5.18;;;;;;;;;;5066571;28;20047;-76
2023/05/28 08:30:28;;;;;;;10.13;5.57;;;;;;;;;;5068515;28;20044;-76
2023/05/28 08:32:54;;;;;;;9.93;5.20;;;;;;;;;;5076041;28;20127;-76
2023/05/28 08:35:20;;;;;;;11.55;5.35;;;;;;;;;;5075706;28;20087;-75
2023/05/28 08:37:46;;;;;;;9.63;5.47;;;;;;;;;;5063067;28;20057;-75
2023/05/28 08:40:13;;;;;;;9.25;5.45;;;;;;;;;;5056248;28;20048;-75
2023/05/28 08:42:39;;;;;;;11.40;5.50;;;;;;;;;;5054548;28;20433;-76
2023/05/28 08:45:08;;;;;;;10.65;6.15;;;;;;;;;;5054852;28;20324;-76
2023/05/28 08:47:35;;;;;;;11.70;6.22;;;;;;;;;;5055998;28;20044;-75
2023/05/28 08:50:03;;;;;;;8.07;5.20;;;;;;;;;;5055288;28;20072;-76
2023/05/28 08:52:31;;;;;;;11.75;6.25;;;;;;;;;;5051567;28;20045;-76
2023/05/28 08:54:58;;;;;;;10.68;5.68;;;;;;;;;;5071904;28;20081;-76
2023/05/28 08:57:25;;;;;;;8.82;5.65;;;;;;;;;;5075895;28;20041;-76
2023/05/28 08:59:51;;;;;;;11.13;6.10;;;;;;;;;;5064925;28;20109;-75
2023/05/28 09:02:17;;;;;;;10.55;5.45;;;;;;;;;;5037117;28;20128;-76
2023/05/28 09:04:46;;;;;;;9.25;5.35;;;;;;;;;;5037467;28;20072;-76
2023/05/28 09:07:13;;;;;;;10.63;6.10;;;;;;;;;;5061817;28;20040;-76
2023/05/28 09:09:40;;;;;;;10.18;4.97;;;;;;;;;;5059641;28;20060;-76
2023/05/28 09:12:10;;;;;;;7.05;4.38;;;;;;;;;;5037242;28;20053;-76
2023/05/28 09:14:42;;;;;;;10.50;5.38;;;;;;;;;;5055757;28;20048;-76
2023/05/28 09:17:13;;;;;;;7.53;4.35;;;;;;;;;;5063836;28;20056;-75
2023/05/28 09:19:40;;;;;;;7.05;4.60;;;;;;;;;;5074984;28;20071;-76
2023/05/28 09:22:06;;;;;;;7.43;4.05;;;;;;;;;;5075748;28;20123;-76
2023/05/28 09:24:33;;;;;;;8.07;4.13;;;;;;;;;;5077261;28;20067;-76
2023/05/28 09:27:00;;;;;;;8.38;4.63;;;;;;;;;;5065474;28;20077;-76
2023/05/28 09:29:27;;;;;;;8.00;4.38;;;;;;;;;;5040785;28;20080;-76
2023/05/28 09:32:02;;;;;;;8.68;3.95;;;;;;;;;;5056531;28;20115;-76
2023/05/28 09:34:33;;;;;;;7.47;4.03;;;;;;;;;;5062369;28;20041;-76
2023/05/28 09:37:00;;;;;;;5.80;4.00;;;;;;;;;;5074694;28;20092;-76
2023/05/28 09:39:27;;;;;;;6.93;3.80;;;;;;;;;;5056975;28;20498;-76
2023/05/28 09:42:03;;;;;;;6.70;4.10;;;;;;;;;;5054402;28;20128;-76
2023/05/28 09:44:29;;;;;;;;;;;;;;;;;;5055032;28;20407;-76
2023/05/28 09:46:55;;;;;;;7.63;3.88;;;;;;;;;;5064048;28;20378;-76
2023/05/28 09:49:21;;;;;;;7.32;3.78;;;;;;;;;;5035912;28;20048;-76
2023/05/28 09:51:48;;;;;;;6.22;3.50;;;;;;;;;;5054543;28;20037;-76
2023/05/28 09:54:15;;;;;;;6.82;4.00;;;;;;;;;;5037023;28;20053;-76
2023/05/28 09:56:42;;;;;;;5.28;3.58;;;;;;;;;;5055282;28;20041;-75
2023/05/28 09:59:10;;;;;;;5.25;3.50;;;;;;;;;;5046752;28;20053;-76
2023/05/28 10:01:41;;;;;;;7.57;3.92;;;;;;;;;;5054437;28;20049;-76
2023/05/28 10:04:11;;;;;;;7.00;4.25;;;;;;;;;;5069440;28;20391;-76
2023/05/28 10:06:39;;;;;;;7.95;4.50;;;;;;;;;;5053962;28;20195;-76
2023/05/28 10:09:05;;;;;;;7.45;4.47;;;;;;;;;;5053551;28;20053;-76
2023/05/28 10:11:38;;;;;;;7.30;4.38;;;;;;;;;;5054037;28;20055;-76
2023/05/28 10:14:05;;;;;;;9.75;4.38;;;;;;;;;;5033232;28;20061;-76
2023/05/28 10:16:32;;;;;;;9.77;4.50;;;;;;;;;;5040394;28;20364;-76
2023/05/28 10:18:58;;;;;;;11.15;4.40;;;;;;;;;;5034050;28;20037;-76
2023/05/28 10:21:25;;;;;;;8.80;4.50;;;;;;;;;;5033303;28;20100;-76
2023/05/28 10:23:52;;;;;;;9.00;4.85;;;;;;;;;;5033448;28;20045;-76
2023/05/28 10:26:18;;;;;;;7.80;4.47;;;;;;;;;;5034092;28;20399;-76
2023/05/28 10:28:45;;;;;;;9.02;4.07;;;;;;;;;;5055513;28;20119;-78
2023/05/28 10:31:11;;;;;;;10.70;4.72;;;;;;;;;;5064328;28;20127;-75
2023/05/28 10:33:44;;;;;;;8.70;5.15;;;;;;;;;;5074148;28;20040;-75
2023/05/28 10:36:14;;;;;;;10.55;4.80;;;;;;;;;;5073310;28;20068;-75
2023/05/28 10:38:59;;;;;;;9.35;5.00;;;;;;;;;;5071807;28;20048;-75
2023/05/28 10:41:25;;;;;;;8.93;4.97;;;;;;;;;;5053018;28;20072;-75
2023/05/28 10:43:52;;;;;;;10.68;5.18;;;;;;;;;;5053694;28;20045;-75
2023/05/28 10:46:19;;;;;;;11.60;5.40;;;;;;;;;;5044600;28;20045;-75
2023/05/28 10:49:19;;;;;;;9.20;4.82;;;;;;;;;;5033518;28;20484;-75
2023/05/28 10:51:45;;;;;;;8.25;4.78;;;;;;;;;;5035158;28;20567;-75
2023/05/28 10:54:15;;;;;;;10.45;4.45;;;;;;;;;;5052025;28;20561;-75
2023/05/28 10:57:01;;;;;;;8.10;4.53;;;;;;;;;;5053288;28;20071;-75
2023/05/28 10:59:37;;;;;;;9.32;4.70;;;;;;;;;;5054572;28;20403;-75
2023/05/28 11:02:03;;;;;;;10.40;4.85;;;;;;;;;;5054790;28;20053;-75
2023/05/28 11:04:33;;;;;;;8.82;3.90;;;;;;;;;;5052406;28;20128;-76
2023/05/28 11:06:59;;;;;;;8.32;4.47;;;;;;;;;;5031796;28;20049;-76
2023/05/28 11:09:25;;;;;;;8.25;4.53;;;;;;;;;;5015241;28;20137;-77
2023/05/28 11:11:51;;;;;;;8.90;4.18;;;;;;;;;;5035897;28;20077;-78
2023/05/28 11:14:17;;;;;;;6.47;3.90;;;;;;;;;;5035557;28;20087;-77
2023/05/28 11:16:43;;;;;;;7.10;3.50;;;;;;;;;;5044871;28;20041;-76
2023/05/28 11:19:10;;;;;;;10.18;4.28;;;;;;;;;;5031442;28;20152;-77
2023/05/28 11:21:55;;;;;;;9.30;3.80;;;;;;;;;;5036410;28;20056;-74
2023/05/28 11:24:21;;;;;;;7.88;3.35;;;;;;;;;;5052836;28;20082;-75
2023/05/28 11:26:47;;;;;;;7.68;4.18;;;;;;;;;;5054900;28;20139;-75
2023/05/28 11:29:15;;;;;;;11.00;4.25;;;;;;;;;;5057124;28;20044;-76
2023/05/28 11:31:41;;;;;;;11.75;4.07;;;;;;;;;;5056223;28;20079;-75
2023/05/28 11:34:10;;;;;;;10.60;4.32;;;;;;;;;;5070106;28;20113;-75
2023/05/28 11:36:41;;;;;;;10.88;4.30;;;;;;;;;;5065869;28;20076;-75
2023/05/28 11:39:07;;;;;;;8.88;4.18;;;;;;;;;;5056620;28;20041;-75
2023/05/28 11:41:33;;;;;;;7.65;3.95;;;;;;;;;;5056592;28;20041;-75
2023/05/28 11:44:00;;;;;;;9.85;4.70;;;;;;;;;;5043989;28;20499;-75
2023/05/28 11:46:26;;;;;;;12.20;4.68;;;;;;;;;;5036912;28;20366;-75
2023/05/28 11:48:52;;;;;;;9.40;4.47;;;;;;;;;;5050004;28;20045;-75
2023/05/28 11:51:21;;;;;;;10.02;4.53;;;;;;;;;;5058342;28;20041;-75
2023/05/28 11:53:47;;;;;;;11.52;4.22;;;;;;;;;;5036496;28;20483;-75
2023/05/28 11:56:13;;;;;;;11.32;4.93;;;;;;;;;;5036179;28;20057;-75
2023/05/28 11:58:44;;;;;;;8.65;4.68;;;;;;;;;;5040083;28;20060;-75
2023/05/28 12:01:17;;;;;;;9.57;4.97;;;;;;;;;;5052112;28;20102;-75
2023/05/28 12:03:43;;;;;;;10.63;4.45;;;;;;;;;;5048397;28;20069;-75
2023/05/28 12:06:10;;;;;;;9.40;4.38;;;;;;;;;;5061630;28;20064;-75
2023/05/28 12:08:38;;;;;;;7.88;3.65;;;;;;;;;;5076001;28;20505;-75
2023/05/28 12:11:04;;;;;;;6.13;4.00;;;;;;;;;;5075087;28;20059;-75
2023/05/28 12:13:34;;;;;;;10.80;4.40;;;;;;;;;;5076384;28;20059;-75
2023/05/28 12:16:09;;;;;;;8.75;4.28;;;;;;;;;;5076130;28;20097;-75
2023/05/28 12:18:40;;;;;;;10.02;4.28;;;;;;;;;;5075025;28;20127;-75
2023/05/28 12:21:10;;;;;;;9.23;4.03;;;;;;;;;;5060296;28;20468;-75
2023/05/28 12:23:36;;;;;;;10.25;4.13;;;;;;;;;;5070545;28;20052;-75
2023/05/28 12:26:02;;;;;;;9.45;4.38;;;;;;;;;;5055529;28;20045;-75
2023/05/28 12:28:28;;;;;;;9.23;4.85;;;;;;;;;;5060331;28;20103;-75
2023/05/28 12:30:55;;;;;;;7.85;4.10;;;;;;;;;;5075846;28;20037;-75
2023/05/28 12:33:22;;;;;;;8.73;4.55;;;;;;;;;;5064632;28;20085;-75
2023/05/28 12:35:48;;;;;;;10.63;4.65;;;;;;;;;;5060202;28;20048;-76
2023/05/28 12:38:14;;;;;;;11.20;4.85;;;;;;;;;;5035694;28;20107;-76
2023/05/28 12:40:41;;;;;;;9.25;4.80;;;;;;;;;;5035407;28;20129;-75
2023/05/28 12:43:07;;;;;;;8.10;4.68;;;;;;;;;;5057957;28;20421;-75
2023/05/28 12:45:34;;;;;;;9.95;5.22;;;;;;;;;;5070127;28;20044;-76
2023/05/28 12:48:00;;;;;;;14.07;6.13;;;;;;;;;;5076334;28;20056;-75
2023/05/28 12:50:26;;;;;;;9.48;4.68;;;;;;;;;;5070737;28;20037;-75
2023/05/28 12:52:52;;;;;;;10.68;4.63;;;;;;;;;;5043661;28;20056;-75
2023/05/28 12:55:18;;;;;;;10.27;5.20;;;;;;;;;;5038930;28;20037;-75
2023/05/28 12:57:44;;;;;;;8.23;4.60;;;;;;;;;;5037702;28;20046;-75
2023/05/28 13:00:11;;;;;;;11.85;4.88;;;;;;;;;;5057293;28;20052;-75
2023/05/28 13:02:37;;;;;;;11.60;4.78;;;;;;;;;;5035170;28;20044;-75
2023/05/28 13:05:04;;;;;;;14.70;4.63;;;;;;;;;;5049248;28;20079;-75
2023/05/28 13:07:30;;;;;;;8.80;4.45;;;;;;;;;;5054190;28;20125;-75
2023/05/28 13:09:56;;;;;;;9.73;5.43;;;;;;;;;;5054108;28;20114;-75
2023/05/28 13:12:22;;;;;;;8.60;5.20;;;;;;;;;;5071328;28;20048;-78
2023/05/28 13:14:48;;;;;;;12.32;5.80;;;;;;;;;;5073405;28;20088;-76
2023/05/28 13:17:15;;;;;;;11.57;5.28;;;;;;;;;;5045140;28;20051;-77
2023/05/28 13:19:40;;;;;;;10.90;4.70;;;;;;;;;;5047060;28;20128;-77
2023/05/28 13:22:10;;;;;;;15.40;6.05;;;;;;;;;;5054797;28;20539;-77
2023/05/28 13:24:36;;;;;;;8.80;4.47;;;;;;;;;;5055712;28;20041;-77
2023/05/28 13:27:03;;;;;;;11.80;5.47;;;;;;;;;;5041919;28;20456;-77
2023/05/28 13:29:29;;;;;;;12.20;4.85;;;;;;;;;;5033625;28;20053;-77
2023/05/28 13:31:55;;;;;;;10.95;5.15;;;;;;;;;;5034260;28;20045;-75
2023/05/28 13:34:21;;;;;;;10.25;5.55;;;;;;;;;;5055744;28;20041;-76
2023/05/28 13:36:47;;;;;;;10.52;5.70;;;;;;;;;;5041151;28;20049;-78
2023/05/28 13:39:13;;;;;;;11.43;5.60;;;;;;;;;;5037594;28;20051;-75
2023/05/28 13:41:40;;;;;;;10.52;6.45;;;;;;;;;;5047327;28;20048;-74
2023/05/28 13:44:06;;;;;;;9.77;5.97;;;;;;;;;;5050193;28;20120;-76
2023/05/28 13:46:32;;;;;;;10.60;5.72;;;;;;;;;;5047987;28;20139;-76
2023/05/28 13:48:58;;;;;;;11.25;5.53;;;;;;;;;;5054329;28;20048;-76
2023/05/28 13:51:24;;;;;;;12.63;5.70;;;;;;;;;;5053109;28;20045;-76
2023/05/28 13:53:51;;;;;;;13.02;7.05;;;;;;;;;;5052596;28;20041;-76
2023/05/28 13:56:17;;;;;;;10.82;5.60;;;;;;;;;;5052556;28;20115;-76
2023/05/28 13:58:43;;;;;;;10.07;5.75;;;;;;;;;;5053904;28;20510;-76
2023/05/28 14:01:10;;;;;;;12.88;6.78;;;;;;;;;;5053340;28;20067;-76
2023/05/28 14:03:36;;;;;;;10.00;5.40;;;;;;;;;;5054560;28;20049;-76
2023/05/28 14:06:03;;;;;;;10.90;5.38;;;;;;;;;;5053561;28;20124;-76
2023/05/28 14:08:29;;;;;;;7.57;5.53;;;;;;;;;;5052197;28;20053;-76
2023/05/28 14:10:55;;;;;;;13.30;6.45;;;;;;;;;;5053749;28;20085;-76
2023/05/28 14:13:21;;;;;;;13.15;6.20;;;;;;;;;;5053143;28;20056;-76
2023/05/28 14:15:47;;;;;;;12.18;6.10;;;;;;;;;;5040123;28;20041;-76
2023/05/28 14:18:13;;;;;;;11.77;7.15;;;;;;;;;;5066674;28;20048;-76
2023/05/28 14:20:39;;;;;;;15.40;7.72;;;;;;;;;;5073509;28;20105;-76
2023/05/28 14:23:05;;;;;;;13.45;8.00;;;;;;;;;;5060972;28;20087;-76
2023/05/28 14:25:32;;;;;;;15.38;9.45;;;;;;;;;;5052609;28;20048;-77
2023/05/28 14:27:58;;;;;;;17.15;9.30;;;;;;;;;;5053666;28;20048;-76
2023/05/28 14:30:27;;;;;;;13.52;9.40;;;;;;;;;;5052158;28;20140;-76